createdAt,value
2018-09-06T00:01:24.209Z,100.00
2018-09-06T00:03:53.214Z,100.00
2018-09-06T00:06:22.322Z,100.00
2018-09-06T00:08:51.303Z,100.00
2018-09-06T00:11:20.286Z,100.00
2018-09-06T00:13:49.277Z,100.00
2018-09-06T00:16:18.249Z,100.00
2018-09-06T00:18:47.296Z,100.00
2018-09-06T00:21:16.326Z,100.00
2018-09-06T00:23:45.423Z,100.00
2018-09-06T00:26:14.389Z,100.00
2018-09-06T00:28:43.417Z,100.00
2018-09-06T00:31:12.522Z,100.00
2018-09-06T00:33:41.612Z,100.00
2018-09-06T00:36:10.605Z,100.00
2018-09-06T00:38:39.632Z,100.00
2018-09-06T00:41:08.677Z,100.00
2018-09-06T00:43:37.701Z,100.00
2018-09-06T00:46:06.846Z,100.00
2018-09-06T00:48:35.907Z,100.00
2018-09-06T00:51:04.940Z,100.00
2018-09-06T00:53:33.972Z,100.00
2018-09-06T00:56:02.931Z,100.00
2018-09-06T00:58:32.025Z,100.00
2018-09-06T01:01:01.104Z,100.00
2018-09-06T01:03:30.156Z,100.00
2018-09-06T01:05:59.177Z,100.00
2018-09-06T01:08:28.160Z,100.00
2018-09-06T01:10:57.126Z,100.00
2018-09-06T01:13:26.192Z,100.00
2018-09-06T01:15:55.270Z,100.00
2018-09-06T01:18:24.300Z,100.00
2018-09-06T01:20:53.259Z,100.00
2018-09-06T01:23:22.339Z,100.00
2018-09-06T01:25:51.293Z,100.00
2018-09-06T01:28:21.490Z,100.00
2018-09-06T01:30:50.969Z,100.00
2018-09-06T01:33:20.074Z,100.00
2018-09-06T01:35:54.090Z,100.00
2018-09-06T01:38:23.169Z,100.00
2018-09-06T01:40:52.280Z,100.00
2018-09-06T01:43:21.241Z,100.00
2018-09-06T01:45:50.277Z,100.00
2018-09-06T01:48:19.299Z,100.00
2018-09-06T01:50:48.294Z,100.00
2018-09-06T01:53:17.328Z,100.00
2018-09-06T01:55:46.296Z,100.00
2018-09-06T01:58:15.382Z,100.00
2018-09-06T02:00:44.349Z,100.00
2018-09-06T02:03:13.361Z,100.00
2018-09-06T02:05:42.356Z,100.00
2018-09-06T02:08:11.310Z,100.00
2018-09-06T02:10:40.390Z,100.00
2018-09-06T02:13:09.405Z,100.00
2018-09-06T02:15:38.489Z,100.00
2018-09-06T02:18:07.521Z,100.00
2018-09-06T02:20:36.504Z,100.00
2018-09-06T02:23:05.468Z,100.00
2018-09-06T02:25:34.568Z,100.00
2018-09-06T02:28:03.581Z,100.00
2018-09-06T02:30:32.541Z,100.00
2018-09-06T02:33:01.620Z,100.00
2018-09-06T02:35:30.580Z,100.00
2018-09-06T02:37:59.577Z,100.00
2018-09-06T02:40:33.637Z,100.00
2018-09-06T02:43:02.702Z,100.00
2018-09-06T02:45:31.708Z,100.00
2018-09-06T02:48:00.717Z,100.00
2018-09-06T02:50:34.821Z,100.00
2018-09-06T02:53:03.785Z,100.00
2018-09-06T02:55:32.848Z,100.00
2018-09-06T02:58:02.012Z,100.00
2018-09-06T03:00:32.309Z,100.00
2018-09-06T03:03:01.409Z,100.00
2018-09-06T03:05:30.456Z,100.00
2018-09-06T03:08:00.438Z,100.00
2018-09-06T03:10:46.615Z,100.00
2018-09-06T03:13:15.734Z,100.00
2018-09-06T03:15:44.732Z,100.00
2018-09-06T03:18:13.894Z,100.00
2018-09-06T03:20:42.925Z,100.00
2018-09-06T03:23:11.897Z,100.00
2018-09-06T03:25:40.919Z,100.00
2018-09-06T03:28:09.981Z,100.00
2018-09-06T03:30:39.040Z,100.00
2018-09-06T03:33:08.050Z,100.00
2018-09-06T03:35:37.149Z,100.00
2018-09-06T03:38:06.126Z,100.00
2018-09-06T03:40:35.228Z,100.00
2018-09-06T03:43:04.297Z,100.00
2018-09-06T03:45:33.245Z,100.00
2018-09-06T03:48:02.275Z,100.00
2018-09-06T03:50:31.240Z,100.00
2018-09-06T03:53:00.246Z,100.00
2018-09-06T03:55:29.276Z,100.00
2018-09-06T03:57:58.333Z,100.00
2018-09-06T04:00:27.434Z,100.00
2018-09-06T04:02:56.398Z,100.00
2018-09-06T04:05:25.489Z,100.00
2018-09-06T04:07:54.514Z,100.00
2018-09-06T04:10:23.533Z,100.00
2018-09-06T04:12:52.568Z,100.00
2018-09-06T04:15:21.647Z,100.00
2018-09-06T04:17:50.692Z,100.00
2018-09-06T04:20:19.960Z,100.00
2018-09-06T04:22:51.105Z,100.00
2018-09-06T04:25:20.224Z,100.00
2018-09-06T04:27:49.610Z,100.00
2018-09-06T04:30:18.599Z,100.00
2018-09-06T04:32:47.562Z,100.00
2018-09-06T04:35:16.707Z,100.00
2018-09-06T04:37:45.696Z,100.00
2018-09-06T04:40:14.785Z,100.00
2018-09-06T04:42:43.743Z,98.49
2018-09-06T04:45:12.750Z,93.97
2018-09-06T04:47:41.802Z,94.30
2018-09-06T04:50:10.757Z,94.09
2018-09-06T04:52:39.841Z,92.39
2018-09-06T04:55:08.816Z,90.17
2018-09-06T04:57:37.929Z,88.06
2018-09-06T05:00:06.977Z,87.33
2018-09-06T05:02:36.001Z,87.30
2018-09-06T05:05:05.053Z,87.37
2018-09-06T05:07:34.008Z,86.10
2018-09-06T05:10:03.080Z,86.02
2018-09-06T05:12:32.149Z,86.98
2018-09-06T05:15:01.286Z,88.35
2018-09-06T05:17:30.335Z,88.49
2018-09-06T05:19:59.455Z,85.92
2018-09-06T05:22:28.419Z,78.88
2018-09-06T05:24:57.490Z,76.39
2018-09-06T05:27:26.504Z,77.58
2018-09-06T05:29:55.459Z,77.85
2018-09-06T05:32:24.602Z,75.67
2018-09-06T05:34:53.633Z,77.62
2018-09-06T05:37:22.588Z,79.66
2018-09-06T05:39:51.625Z,83.09
2018-09-06T05:42:20.656Z,86.53
2018-09-06T05:44:49.700Z,88.08
2018-09-06T05:47:18.712Z,87.34
2018-09-06T05:49:47.850Z,86.36
2018-09-06T05:52:16.825Z,87.89
2018-09-06T05:54:46.018Z,87.88
2018-09-06T05:57:15.144Z,88.99
2018-09-06T05:59:44.243Z,90.47
2018-09-06T06:02:13.168Z,90.88
2018-09-06T06:04:42.109Z,91.17
2018-09-06T06:07:11.080Z,92.63
2018-09-06T06:09:40.042Z,92.89
2018-09-06T06:12:09.080Z,93.35
2018-09-06T06:14:38.153Z,93.52
2018-09-06T06:17:07.112Z,94.42
2018-09-06T06:19:36.182Z,93.84
2018-09-06T06:22:05.213Z,92.81
2018-09-06T06:24:34.302Z,92.87
2018-09-06T06:27:03.264Z,91.34
2018-09-06T06:29:32.379Z,91.16
2018-09-06T06:32:01.458Z,90.73
2018-09-06T06:34:30.442Z,89.69
2018-09-06T06:36:59.529Z,88.40
2018-09-06T06:39:28.652Z,86.60
2018-09-06T06:41:57.832Z,86.01
2018-09-06T06:44:26.875Z,84.52
2018-09-06T06:46:56.611Z,83.11
2018-09-06T06:49:25.645Z,82.22
2018-09-06T06:51:54.659Z,80.59
2018-09-06T06:54:23.829Z,78.75
2018-09-06T06:56:52.944Z,79.26
2018-09-06T06:59:22.053Z,78.36
2018-09-06T07:01:51.077Z,76.52
2018-09-06T07:04:20.141Z,78.26
2018-09-06T07:06:49.262Z,75.91
2018-09-06T07:09:18.301Z,76.03
2018-09-06T07:11:47.357Z,75.75
2018-09-06T07:14:16.401Z,74.86
2018-09-06T07:16:45.448Z,75.83
2018-09-06T07:19:14.420Z,73.37
2018-09-06T07:21:43.404Z,70.35
2018-09-06T07:24:12.535Z,71.21
2018-09-06T07:26:41.577Z,71.88
2018-09-06T07:29:10.699Z,71.27
2018-09-06T07:31:39.809Z,71.03
2018-09-06T07:34:08.861Z,72.63
2018-09-06T07:36:37.797Z,70.52
2018-09-06T07:39:09.472Z,70.76
2018-09-06T07:41:38.602Z,68.35
2018-09-06T07:44:07.968Z,69.31
2018-09-06T07:46:37.053Z,67.29
2018-09-06T07:49:06.060Z,66.93
2018-09-06T07:51:35.069Z,66.33
2018-09-06T07:54:04.089Z,64.89
2018-09-06T07:56:33.197Z,66.21
2018-09-06T07:59:02.221Z,66.52
2018-09-06T08:01:31.299Z,66.30
2018-09-06T08:04:03.289Z,68.41
2018-09-06T08:06:37.460Z,69.65
2018-09-06T08:09:12.319Z,70.32
2018-09-06T08:11:45.534Z,69.19
2018-09-06T08:14:21.057Z,68.54
2018-09-06T08:16:54.681Z,67.56
2018-09-06T08:19:33.012Z,69.16
2018-09-06T08:22:06.320Z,65.87
2018-09-06T08:24:43.667Z,68.27
2018-09-06T08:27:16.785Z,65.67
2018-09-06T08:29:59.312Z,64.68
2018-09-06T08:32:32.967Z,62.51
2018-09-06T08:35:04.739Z,62.17
2018-09-06T08:37:38.209Z,63.17
2018-09-06T08:40:10.992Z,63.71
2018-09-06T08:42:46.354Z,63.07
2018-09-06T08:45:20.215Z,61.43
2018-09-06T08:47:55.088Z,60.12
2018-09-06T08:50:27.703Z,60.83
2018-09-06T08:53:16.668Z,58.57
2018-09-06T08:55:59.362Z,59.96
2018-09-06T08:58:36.526Z,61.50
2018-09-06T09:01:10.705Z,61.74
2018-09-06T09:03:39.834Z,62.48
2018-09-06T09:06:08.965Z,62.24
2018-09-06T09:08:37.992Z,61.79
2018-09-06T09:11:07.145Z,61.14
2018-09-06T09:13:36.148Z,61.84
2018-09-06T09:16:05.328Z,61.64
2018-09-06T09:18:37.589Z,61.02
2018-09-06T09:21:11.614Z,60.77
2018-09-06T09:23:42.734Z,60.33
2018-09-06T09:26:13.751Z,59.89
2018-09-06T09:28:42.801Z,59.02
2018-09-06T09:31:13.821Z,58.43
2018-09-06T09:33:44.732Z,55.80
2018-09-06T09:36:15.343Z,54.99
2018-09-06T09:38:45.548Z,55.26
2018-09-06T09:41:19.551Z,50.80
2018-09-06T09:43:51.581Z,53.97
2018-09-06T09:51:28.470Z,52.27
2018-09-06T09:53:59.523Z,52.84
2018-09-06T09:56:29.306Z,53.52
2018-09-06T09:59:04.413Z,54.02
2018-09-06T10:01:39.605Z,54.22
2018-09-06T10:04:14.331Z,55.45
2018-09-06T10:06:49.593Z,56.36
2018-09-06T10:09:22.408Z,58.83
2018-09-06T10:11:52.503Z,60.11
2018-09-06T10:14:22.172Z,58.10
2018-09-06T10:16:51.168Z,56.49
2018-09-06T10:19:20.159Z,56.97
2018-09-06T10:21:49.218Z,58.94
2018-09-06T10:24:18.261Z,56.83
2018-09-06T10:26:47.376Z,56.12
2018-09-06T10:29:16.378Z,57.17
2018-09-06T10:31:45.408Z,58.24
2018-09-06T10:34:14.373Z,56.81
2018-09-06T10:36:43.398Z,58.18
2018-09-06T10:39:12.451Z,57.34
2018-09-06T10:41:41.465Z,53.42
2018-09-06T10:44:10.556Z,52.23
2018-09-06T10:46:39.552Z,54.26
2018-09-06T10:49:08.544Z,54.96
2018-09-06T10:51:37.560Z,54.17
2018-09-06T10:54:06.585Z,50.71
2018-09-06T10:56:35.733Z,47.81
2018-09-06T10:59:17.760Z,44.95
2018-09-06T11:01:51.356Z,40.13
2018-09-06T11:04:25.197Z,39.44
2018-09-06T11:07:04.061Z,39.04
2018-09-06T11:09:43.910Z,39.85
2018-09-06T11:12:23.651Z,40.45
2018-09-06T11:15:03.939Z,41.24
2018-09-06T11:17:38.928Z,43.74
2018-09-06T11:20:07.940Z,45.24
2018-09-06T11:22:37.197Z,46.18
2018-09-06T11:25:06.071Z,43.52
2018-09-06T11:27:35.086Z,41.07
2018-09-06T11:30:04.149Z,39.75
2018-09-06T11:32:33.281Z,40.82
2018-09-06T11:35:02.352Z,39.31
2018-09-06T11:37:31.372Z,39.73
2018-09-06T11:40:00.454Z,42.71
2018-09-06T11:42:29.617Z,41.99
2018-09-06T11:44:58.597Z,40.47
2018-09-06T11:47:27.686Z,37.38
2018-09-06T11:49:56.735Z,37.18
2018-09-06T11:52:25.705Z,34.38
2018-09-06T11:54:54.658Z,33.57
2018-09-06T11:57:23.704Z,34.89
2018-09-06T11:59:52.748Z,33.58
2018-09-06T12:02:21.873Z,36.48
2018-09-06T12:04:50.843Z,39.35
2018-09-06T12:07:19.951Z,39.69
2018-09-06T12:09:48.959Z,41.08
2018-09-06T12:12:17.945Z,43.08
2018-09-06T12:14:47.053Z,42.77
2018-09-06T12:17:16.056Z,46.41
2018-09-06T12:19:45.055Z,42.57
2018-09-06T12:22:14.136Z,38.57
2018-09-06T12:24:43.683Z,36.37
2018-09-06T12:27:13.236Z,39.32
2018-09-06T12:29:42.525Z,41.43
2018-09-06T12:32:11.516Z,43.18
2018-09-06T12:34:40.532Z,42.50
2018-09-06T12:37:12.777Z,42.03
2018-09-06T12:39:43.288Z,38.82
2018-09-06T12:42:12.637Z,39.55
2018-09-06T12:44:42.012Z,40.76
2018-09-06T12:47:11.296Z,43.16
2018-09-06T12:49:41.186Z,44.83
2018-09-06T12:52:10.111Z,44.54
2018-09-06T12:54:39.191Z,45.68
2018-09-06T12:57:08.313Z,47.89
2018-09-06T12:59:37.344Z,47.76
2018-09-06T13:02:06.292Z,46.93
2018-09-06T13:04:35.346Z,47.29
2018-09-06T13:07:04.312Z,46.23
2018-09-06T13:09:33.256Z,46.70
2018-09-06T13:12:02.224Z,49.19
2018-09-06T13:14:31.378Z,49.45
2018-09-06T13:17:00.434Z,50.59
2018-09-06T13:19:29.552Z,50.47
2018-09-06T13:21:58.558Z,49.83
2018-09-06T13:24:28.050Z,50.81
2018-09-06T13:26:57.059Z,50.48
2018-09-06T13:29:26.096Z,50.84
2018-09-06T13:31:55.123Z,50.78
2018-09-06T13:34:24.281Z,50.33
2018-09-06T13:36:53.324Z,53.42
2018-09-06T13:39:22.337Z,52.08
2018-09-06T13:41:51.441Z,52.72
2018-09-06T13:44:20.468Z,52.84
2018-09-06T13:46:49.566Z,51.22
2018-09-06T13:49:18.569Z,51.04
2018-09-06T13:51:47.678Z,49.25
2018-09-06T13:54:16.632Z,53.81
2018-09-06T13:56:45.736Z,56.25
2018-09-06T13:59:14.869Z,56.07
2018-09-06T14:01:43.825Z,55.86
2018-09-06T14:04:12.866Z,52.70
2018-09-06T14:06:41.839Z,46.80
2018-09-06T14:09:10.941Z,47.39
2018-09-06T14:11:39.948Z,46.31
2018-09-06T14:14:08.912Z,44.75
2018-09-06T14:16:38.167Z,43.75
2018-09-06T14:19:07.194Z,42.47
2018-09-06T14:21:36.258Z,42.53
2018-09-06T14:24:05.300Z,44.32
2018-09-06T14:26:34.380Z,44.08
2018-09-06T14:29:03.434Z,44.63
2018-09-06T14:31:32.416Z,45.15
2018-09-06T14:34:01.583Z,45.63
2018-09-06T14:36:30.612Z,45.43
2018-09-06T14:39:00.145Z,46.42
2018-09-06T14:41:29.073Z,46.13
2018-09-06T14:43:58.158Z,46.66
2018-09-06T14:46:27.213Z,44.96
2018-09-06T14:48:56.224Z,45.18
2018-09-06T14:51:25.209Z,45.45
2018-09-06T14:53:54.324Z,44.46
2018-09-06T14:56:23.580Z,45.65
2018-09-06T14:58:52.584Z,45.27
2018-09-06T15:01:21.606Z,46.80
2018-09-06T15:03:50.624Z,47.67
2018-09-06T15:06:19.664Z,48.09
2018-09-06T15:08:48.822Z,47.58
2018-09-06T15:11:17.817Z,49.09
2018-09-06T15:13:47.068Z,48.89
2018-09-06T15:16:16.131Z,49.90
2018-09-06T15:18:45.085Z,57.36
2018-09-06T15:21:14.080Z,64.13
2018-09-06T15:23:43.023Z,67.89
2018-09-06T15:26:12.105Z,69.64
2018-09-06T15:28:41.076Z,70.88
2018-09-06T15:31:10.204Z,72.17
2018-09-06T15:33:39.286Z,72.18
2018-09-06T15:36:08.232Z,71.97
2018-09-06T15:38:37.293Z,72.64
2018-09-06T15:41:06.310Z,72.88
2018-09-06T15:43:35.268Z,73.45
2018-09-06T15:46:04.276Z,73.01
2018-09-06T15:48:33.348Z,71.54
2018-09-06T15:51:02.300Z,72.10
2018-09-06T15:53:31.406Z,73.79
2018-09-06T15:56:00.521Z,73.68
2018-09-06T15:58:29.625Z,73.75
2018-09-06T16:00:58.680Z,74.11
2018-09-06T16:03:27.720Z,74.69
2018-09-06T16:05:56.766Z,73.83
2018-09-06T16:08:26.013Z,74.63
2018-09-06T16:10:55.291Z,73.99
2018-09-06T16:13:24.951Z,74.64
2018-09-06T16:15:54.170Z,74.44
2018-09-06T16:18:23.313Z,76.17
2018-09-06T16:20:52.318Z,75.72
2018-09-06T16:23:21.275Z,76.50
2018-09-06T16:25:50.408Z,78.07
2018-09-06T16:28:19.519Z,81.07
2018-09-06T16:30:48.472Z,81.18
2018-09-06T16:33:17.429Z,82.76
2018-09-06T16:35:46.389Z,82.55
2018-09-06T16:38:15.401Z,83.96
2018-09-06T16:40:44.399Z,84.16
2018-09-06T16:43:13.424Z,85.93
2018-09-06T16:45:42.420Z,95.99
2018-09-06T16:48:11.448Z,95.94
2018-09-06T16:50:40.424Z,92.84
2018-09-06T16:53:09.481Z,97.31
2018-09-06T16:55:38.697Z,96.24
2018-09-06T16:58:07.720Z,99.19
2018-09-06T17:00:36.745Z,100.00
2018-09-06T17:03:05.792Z,100.00
2018-09-06T17:05:34.791Z,100.00
2018-09-06T17:08:03.812Z,100.00
2018-09-06T17:10:32.864Z,100.00
2018-09-06T17:13:02.040Z,100.00
2018-09-06T17:15:31.033Z,100.00
2018-09-06T17:18:00.211Z,100.00
2018-09-06T17:20:29.366Z,100.00
2018-09-06T17:22:58.426Z,100.00
2018-09-06T17:25:27.426Z,100.00
2018-09-06T17:27:56.512Z,100.00
2018-09-06T17:30:25.596Z,100.00
2018-09-06T17:32:54.579Z,100.00
2018-09-06T17:35:23.541Z,100.00
2018-09-06T17:37:52.512Z,100.00
2018-09-06T17:40:21.516Z,100.00
2018-09-06T17:42:50.599Z,100.00
2018-09-06T17:45:19.556Z,100.00
2018-09-06T17:47:48.669Z,100.00
2018-09-06T17:50:17.653Z,100.00
2018-09-06T17:52:46.618Z,100.00
2018-09-06T17:55:15.641Z,100.00
2018-09-06T17:57:44.731Z,100.00
2018-09-06T18:00:13.766Z,100.00
2018-09-06T18:02:42.804Z,100.00
2018-09-06T18:05:11.896Z,100.00
2018-09-06T18:07:41.012Z,100.00
2018-09-06T18:10:09.544Z,100.00
2018-09-06T18:12:38.556Z,100.00
2018-09-06T18:15:07.792Z,100.00
2018-09-06T18:17:36.936Z,100.00
2018-09-06T18:20:05.986Z,100.00
2018-09-06T18:22:35.008Z,100.00
2018-09-06T18:25:04.233Z,100.00
2018-09-06T18:27:33.406Z,100.00
2018-09-06T18:30:02.606Z,100.00
2018-09-06T18:32:31.720Z,100.00
2018-09-06T18:35:00.750Z,100.00
2018-09-06T18:37:29.780Z,100.00
2018-09-06T18:39:58.829Z,100.00
2018-09-06T18:42:27.836Z,100.00
2018-09-06T18:44:56.817Z,100.00
2018-09-06T18:47:25.853Z,100.00
2018-09-06T18:49:55.787Z,100.00
2018-09-06T18:52:24.899Z,100.00
2018-09-06T18:54:53.918Z,100.00
2018-09-06T18:57:23.008Z,100.00
2018-09-06T18:59:51.976Z,100.00
2018-09-06T19:02:20.981Z,100.00
2018-09-06T19:04:50.002Z,100.00
2018-09-06T19:07:18.968Z,100.00
2018-09-06T19:09:47.989Z,100.00
2018-09-06T19:12:17.045Z,100.00
2018-09-06T19:14:46.102Z,100.00
2018-09-06T19:17:15.182Z,100.00
2018-09-06T19:19:44.220Z,100.00
2018-09-06T19:22:13.222Z,100.00
2018-09-06T19:24:42.208Z,100.00
2018-09-06T19:27:11.204Z,100.00
2018-09-06T19:29:40.173Z,100.00
2018-09-06T19:32:09.263Z,100.00
2018-09-06T19:34:38.239Z,100.00
2018-09-06T19:37:07.197Z,100.00
2018-09-06T19:39:36.167Z,100.00
2018-09-06T19:42:05.125Z,100.00
2018-09-06T19:44:34.200Z,100.00
2018-09-06T19:47:03.210Z,100.00
2018-09-06T19:49:32.234Z,100.00
2018-09-06T19:52:01.244Z,100.00
2018-09-06T19:54:30.340Z,100.00
2018-09-06T19:56:59.296Z,100.00
2018-09-06T19:59:28.317Z,100.00
2018-09-06T20:01:57.404Z,100.00
2018-09-06T20:04:26.348Z,100.00
2018-09-06T20:06:55.425Z,100.00
2018-09-06T20:09:24.438Z,100.00
2018-09-06T20:11:53.519Z,100.00
2018-09-06T20:14:22.566Z,100.00
2018-09-06T20:16:51.624Z,100.00
2018-09-06T20:19:20.532Z,100.00
2018-09-06T20:21:49.529Z,100.00
2018-09-06T20:24:18.669Z,100.00
2018-09-06T20:26:47.790Z,100.00
2018-09-06T20:29:16.812Z,100.00
2018-09-06T20:31:45.902Z,100.00
2018-09-06T20:34:14.918Z,100.00
2018-09-06T20:36:43.968Z,100.00
2018-09-06T20:39:13.002Z,100.00
2018-09-06T20:41:42.053Z,100.00
2018-09-06T20:44:10.977Z,100.00
2018-09-06T20:46:39.961Z,100.00
2018-09-06T20:49:09.005Z,100.00
2018-09-06T20:51:38.013Z,100.00
2018-09-06T20:54:07.047Z,100.00
2018-09-06T20:56:36.141Z,100.00
2018-09-06T20:59:05.205Z,100.00
2018-09-06T21:01:34.187Z,100.00
2018-09-06T21:04:03.385Z,100.00
2018-09-06T21:06:32.364Z,100.00
2018-09-06T21:09:01.536Z,100.00
2018-09-06T21:11:30.717Z,100.00
2018-09-06T21:13:59.760Z,100.00
2018-09-06T21:16:28.808Z,100.00
2018-09-06T21:18:57.736Z,100.00
2018-09-06T21:21:26.733Z,100.00
2018-09-06T21:23:55.756Z,100.00
2018-09-06T21:26:24.721Z,100.00
2018-09-06T21:28:53.801Z,100.00
2018-09-06T21:31:22.888Z,100.00
2018-09-06T21:33:51.971Z,100.00
2018-09-06T21:36:20.941Z,100.00
2018-09-06T21:38:49.947Z,100.00
2018-09-06T21:41:18.965Z,100.00
2018-09-06T21:43:47.919Z,100.00
2018-09-06T21:46:17.005Z,100.00
2018-09-06T21:48:46.008Z,100.00
2018-09-06T21:51:14.986Z,100.00
2018-09-06T21:53:43.960Z,100.00
2018-09-06T21:56:12.985Z,100.00
2018-09-06T21:58:41.952Z,100.00
2018-09-06T22:01:11.025Z,100.00
2018-09-06T22:03:45.112Z,100.00
2018-09-06T22:06:14.156Z,100.00
2018-09-06T22:08:43.342Z,100.00
2018-09-06T22:11:13.908Z,100.00
2018-09-06T22:13:42.924Z,100.00
2018-09-06T22:16:12.940Z,100.00
2018-09-06T22:18:41.940Z,100.00
2018-09-06T22:21:10.980Z,100.00
2018-09-06T22:23:40.038Z,100.00
2018-09-06T22:26:09.084Z,100.00
2018-09-06T22:28:38.888Z,100.00
2018-09-06T22:31:08.164Z,100.00
2018-09-06T22:33:37.643Z,100.00
2018-09-06T22:36:06.959Z,100.00
2018-09-06T22:38:36.091Z,100.00
2018-09-06T22:41:05.356Z,100.00
2018-09-06T22:43:34.429Z,100.00
2018-09-06T22:46:03.872Z,100.00
2018-09-06T22:48:33.473Z,100.00
2018-09-06T22:51:03.118Z,100.00
2018-09-06T22:53:33.169Z,100.00
2018-09-06T22:56:02.408Z,100.00
2018-09-06T22:58:31.487Z,100.00
2018-09-06T23:01:00.452Z,100.00
2018-09-06T23:03:34.482Z,100.00
2018-09-06T23:06:03.453Z,100.00
2018-09-06T23:08:32.411Z,100.00
2018-09-06T23:11:01.429Z,100.00
2018-09-06T23:13:30.401Z,100.00
2018-09-06T23:15:59.396Z,100.00
2018-09-06T23:18:28.381Z,100.00
2018-09-06T23:20:57.351Z,100.00
2018-09-06T23:23:26.415Z,100.00
2018-09-06T23:25:55.433Z,100.00
2018-09-06T23:28:24.440Z,100.00
2018-09-06T23:30:53.391Z,100.00
2018-09-06T23:33:22.368Z,100.00
2018-09-06T23:35:51.332Z,100.00
2018-09-06T23:38:20.433Z,100.00
2018-09-06T23:40:55.172Z,100.00
2018-09-06T23:43:25.160Z,100.00
2018-09-06T23:45:55.549Z,100.00
2018-09-06T23:48:26.724Z,100.00
2018-09-06T23:50:56.691Z,100.00
2018-09-06T23:53:26.592Z,100.00
2018-09-06T23:55:55.673Z,100.00
2018-09-06T23:58:24.656Z,100.00
